H. Lee White — WZD2465 — position and weather

sailwx.info

Track history (hours):
 
Tides and Currents Weather Stations Pressure Air Temp Water Temp Dewpoint Dewpoint Depression Visibility Wind Speed Wind Dir Waves Ship Positions

H. Lee White

Owner: AMERICAN STEAMSHIP COMPANY, WILLIAMSVILLE, NY. More information available from US FCC via Universal Licensing System and Coast Guard Vessel Documentation Center.

Last reported at 2014-Oct-24 00:26 UTC. Time now 2014-Oct-25 07:51 UTC.
Position N 45°34' W 083°24'.

Length 214 m; draft 6.4 m.

Type: Cargo ship. MMSI: 366938770.

Date/timePositionNaut miles runAvg speedWind from/ knotsBaromVisibWave heightAir tempDewpointWater temp
2014-Oct-24 00:26N 45°34' W 083°24'2411.5
2014-Oct-23 22:21N 45°52' W 083°48'1110.4
2014-Oct-23 21:19N 46°02' W 083°55'7 8.8
2014-Oct-23 20:29N 46°07' W 084°01'9 9.1
2014-Oct-23 19:30N 46°14' W 084°10'9 6.4
2014-Oct-23 18:09N 46°22' W 084°13'10 1.8
2014-Oct-23 12:33N 46°30' W 084°22'1 0.3
2014-Oct-23 07:32N 46°30' W 084°24'8 7.2
2014-Oct-23 06:27N 46°29' W 084°35'1011.0
2014-Oct-23 05:33N 46°36' W 084°45'1111.5
2014-Oct-23 04:33N 46°46' W 084°54'1410.9
2014-Oct-23 03:17N 46°51' W 085°13'7111.9
2014-Oct-22 21:19N 46°39' W 086°54'911.9
2014-Oct-22 20:32N 46°37' W 087°08'11 0.9
2014-Oct-22 07:25N 46°32' W 087°23'40 2.4
2014-Oct-21 14:15N 46°41' W 086°26'128 4.5
2014-Oct-20 10:00N 45°42' W 083°42'   210 / 141009.1 5.4 6.1
2014-Oct-15 08:00N 45°00' W 082°36'3210.7 050 / 22 5.4 1.0
2014-Oct-15 05:00N 45°24' W 083°06'4412.9 060 / 201009.1 2.2 12.7
2014-Oct-15 01:33N 45°55' W 083°51'  
Track history (hours):
 
Tides and Currents Weather Stations Pressure Air Temp Water Temp Dewpoint Dewpoint Depression Visibility Wind Speed Wind Dir Waves Ship Positions

H. Lee White

Owner: AMERICAN STEAMSHIP COMPANY, WILLIAMSVILLE, NY. More information available from US FCC via Universal Licensing System and Coast Guard Vessel Documentation Center.

Last reported at 2014-Oct-24 00:26 UTC. Time now 2014-Oct-25 07:51 UTC.
Position N 45°34' W 083°24'.

Length 214 m; draft 6.4 m.

Type: Cargo ship. MMSI: 366938770.

Date/timePositionNaut miles runAvg speedWind from/ knotsBaromVisibWave heightAir tempDewpointWater temp
2014-Oct-24 00:26N 45°34' W 083°24'2411.5
2014-Oct-23 22:21N 45°52' W 083°48'1110.4
2014-Oct-23 21:19N 46°02' W 083°55'7 8.8
2014-Oct-23 20:29N 46°07' W 084°01'9 9.1
2014-Oct-23 19:30N 46°14' W 084°10'9 6.4
2014-Oct-23 18:09N 46°22' W 084°13'10 1.8
2014-Oct-23 12:33N 46°30' W 084°22'1 0.3
2014-Oct-23 07:32N 46°30' W 084°24'8 7.2
2014-Oct-23 06:27N 46°29' W 084°35'1011.0
2014-Oct-23 05:33N 46°36' W 084°45'1111.5
2014-Oct-23 04:33N 46°46' W 084°54'1410.9
2014-Oct-23 03:17N 46°51' W 085°13'7111.9
2014-Oct-22 21:19N 46°39' W 086°54'911.9
2014-Oct-22 20:32N 46°37' W 087°08'11 0.9
2014-Oct-22 07:25N 46°32' W 087°23'40 2.4
2014-Oct-21 14:15N 46°41' W 086°26'128 4.5
2014-Oct-20 10:00N 45°42' W 083°42'   210 / 141009.1 5.4 6.1
2014-Oct-15 08:00N 45°00' W 082°36'3210.7 050 / 22 5.4 1.0
2014-Oct-15 05:00N 45°24' W 083°06'4412.9 060 / 201009.1 2.2 12.7
2014-Oct-15 01:33N 45°55' W 083°51'  

Dump ship's entire track history